AirNav   SIMCOM
 
 1729 users online  

AR88 Poe's Airport
Conway, Arkansas, USA

GOING TO CONWAY?


FAA INFORMATION EFFECTIVE 20 JULY 2017

Location

FAA Identifier: AR88
Lat/Long: 35-03-17.3100N / 092-21-14.5540W
35-03.288500N / 092-21.242567W
35.0548083 / -92.3540428
(estimated)
Elevation: 295 ft. / 90 m (estimated)
Variation: 04E (1985)
From city: 4 miles SE of CONWAY, AR
Time zone: UTC -5 (UTC -6 during Standard Time)
Zip code: 72032

Airport Operations

Airport use: Private use. Permission required prior to landing
Activation date: 03/1991
Control tower: no
ARTCC: MEMPHIS CENTER
FSS: JONESBORO FLIGHT SERVICE STATION
Attendance: UNATNDD
Wind indicator: yes
Segmented circle: no

Airport Communications

WX AWOS-2 at CXW (10 nm W): 118.775 (501-358-6209)

Nearby radio navigation aids

VOR radial/distance  VOR name  Freq  Var
LITr334/24.2LITTLE ROCK VORTAC113.9005E

 
NDB name  Hdg/Dist  Freq  Var  ID
TONEYVILLE289/17.629001ETYV - -.-- ...-
MORRILTON091/28.341007EMPJ -- .--. .---
RUSSELLVILLE105/38.337903ERUE .-. ..- .

Airport Services

Runway Information

Runway 11/29

Dimensions: 2700 x 50 ft. / 823 x 15 m
Surface: turf
RUNWAY 11  RUNWAY 29
Traffic pattern: leftleft
Obstructions: none40 ft. plines

Airport Ownership and Management from official FAA records

Ownership: Privately-owned
Owner: REX POE
234 ROOSTER RD
CONWAY, AR 72032
Phone 504-450-8428
Manager: REX POE
234 ROOSTER RD
CONWAY, AR 72032
Phone 501-450-8428

Airport Operational Statistics

Aircraft based on the field: 3
Single engine airplanes: 3
    

Instrument Procedures

There are no published instrument procedures at AR88.

Some nearby airports with instrument procedures:

KCXW - Cantrell Field Airport (10 nm W)
KLRF - Little Rock Air Force Base (13 nm SE)
KORK - North Little Rock Municipal Airport (14 nm S)
KBDQ - Morrilton Municipal Airport (18 nm W)
KLIT - Bill and Hillary Clinton National Airport/Adams Field (21 nm S)
 
Loc | Ops | Rwys | IFR | FBO | Links
Com | Nav | Svcs | Stats | Notes

Fly Arkansas
AirBoss

 
Area around AR88 (Poe's Airport)
 
Road maps at: MapQuest Bing Google
 
Aerial photo
No photo
 
Sectional chart

 
Airport distance calculator
Flying to Poe's Airport? Find the distance to fly.

From to AR88

Sunrise and sunset
Times for 24-Jul-2017
 Local
(UTC-5)
 Zulu
(UTC)
Morning civil twilight05:4510:45
Sunrise06:1411:14
Sunset20:1801:18
Evening civil twilight20:4601:46

Current date and time
Zulu (UTC)  24-Jul-2017 19:25:22
Local (UTC-5)  24-Jul-2017 14:25:22
 
METAR
KCXW 
10nm W 
241855Z AUTO VRB04KT 10SM 33/23 A2993 RMK A01
KLRF 
13nm SE 
241858Z AUTO 07003KT 10SM BKN032 BKN150 32/25 A2994 RMK AO2 SLP138 T03190250
KLIT 
20nm S 
241853Z 12005KT 10SM FEW035 BKN250 32/24 A2995 RMK AO2 SLP139 T03170244
TAF
KLRF 
13nm SE 
241500Z 2415/2521 23006KT 9999 FEW050 QNH2989INS TEMPO 2420/2423 VRB12G18KT 8000 -TSRA BKN045CB BECMG 2422/2423 23006KT 9999 FEW030 SCT060 QNH2991INS BECMG 2514/2515 23006KT 9999 FEW040 QNH3004INS BECMG 2520/2521 VRB12G18KT 8000 -TSRA BKN040CB QNH3001INS TX35/2421Z TN23/2512Z
NOTAMs
Click for the latest NOTAMs
NOTAMs are issued by the DoD/FAA and will open in a separate window not controlled by AirNav.

 

 
 

Would you like to see your business listed on this page?

 If your business provides an interesting product or service to pilots, flight crews, aircraft, or users of the Poe's Airport, you should consider listing it here.  To start the listing process, click on the button below
 
Add a business
 

Other Pages about Poe's Airport

Update a link
 
Copyright © AirNav, LLC. All rights reserved. Privacy Policy  Contact